createdAt,value
2018-01-05T00:04:30.126Z,71.39
2018-01-05T00:10:33.678Z,69.58
2018-01-05T00:16:37.101Z,66.99
2018-01-05T00:22:41.392Z,68.90
2018-01-05T00:28:45.701Z,68.90
2018-01-05T00:34:50.001Z,69.31
2018-01-05T00:40:53.847Z,69.88
2018-01-05T00:46:58.749Z,70.83
2018-01-05T00:53:02.995Z,70.91
2018-01-05T00:59:06.510Z,72.29
2018-01-05T01:05:10.012Z,70.36
2018-01-05T01:11:13.511Z,69.03
2018-01-05T01:17:16.945Z,67.05
2018-01-05T01:23:21.231Z,66.73
2018-01-05T01:29:26.056Z,67.96
2018-01-05T01:35:29.991Z,68.65
2018-01-05T01:41:34.235Z,69.26
2018-01-05T01:47:38.474Z,69.90
2018-01-05T01:53:42.014Z,71.49
2018-01-05T01:59:45.511Z,68.87
2018-01-05T02:05:49.722Z,67.21
2018-01-05T02:11:53.939Z,67.20
2018-01-05T02:17:57.943Z,67.69
2018-01-05T02:24:01.461Z,68.44
2018-01-05T02:30:04.997Z,69.34
2018-01-05T02:36:08.504Z,70.01
2018-01-05T02:42:12.143Z,68.68
2018-01-05T02:48:16.484Z,69.16
2018-01-05T02:54:20.141Z,67.27
2018-01-05T03:00:24.210Z,68.02
2018-01-05T03:06:27.739Z,67.91
2018-01-05T03:12:31.426Z,67.25
2018-01-05T03:18:35.709Z,67.58
2018-01-05T03:24:39.272Z,69.14
2018-01-05T03:30:43.515Z,69.31
2018-01-05T03:36:47.016Z,70.75
2018-01-05T03:42:51.655Z,71.34
2018-01-05T03:48:57.029Z,72.38
2018-01-05T03:55:00.516Z,71.40
2018-01-05T04:01:03.954Z,72.04
2018-01-05T04:07:07.514Z,71.50
2018-01-05T04:13:11.797Z,71.54
2018-01-05T04:19:15.256Z,71.47
2018-01-05T04:25:18.783Z,71.65
2018-01-05T04:31:22.209Z,72.50
2018-01-05T04:37:25.965Z,72.52
2018-01-05T04:43:29.423Z,73.24
2018-01-05T04:49:32.869Z,72.54
2018-01-05T04:55:36.298Z,72.44
2018-01-05T05:01:40.702Z,72.60
2018-01-05T05:07:44.288Z,73.25
2018-01-05T05:13:47.903Z,75.87
2018-01-05T05:19:51.365Z,77.96
2018-01-05T05:25:55.718Z,78.94
2018-01-05T05:31:59.477Z,79.12
2018-01-05T05:38:03.247Z,79.66
2018-01-05T05:44:06.762Z,79.26
2018-01-05T05:50:10.355Z,79.19
2018-01-05T05:56:14.071Z,78.09
2018-01-05T06:02:17.602Z,78.53
2018-01-05T06:08:21.164Z,77.70
2018-01-05T06:14:25.121Z,77.02
2018-01-05T06:20:28.863Z,77.39
2018-01-05T06:26:32.332Z,78.06
2018-01-05T06:32:35.985Z,78.81
2018-01-05T06:38:39.443Z,79.36
2018-01-05T06:44:43.109Z,80.07
2018-01-05T06:50:46.843Z,80.34
2018-01-05T06:56:50.328Z,81.14
2018-01-05T07:02:54.338Z,82.25
2018-01-05T07:08:58.178Z,82.23
2018-01-05T07:15:01.646Z,82.34
2018-01-05T07:21:06.132Z,82.82
2018-01-05T07:27:10.319Z,82.64
2018-01-05T07:33:14.126Z,82.41
2018-01-05T07:39:17.547Z,82.47
2018-01-05T07:45:21.161Z,83.06
2018-01-05T07:51:25.383Z,82.85
2018-01-05T07:57:28.849Z,83.17
2018-01-05T08:03:32.386Z,83.12
2018-01-05T08:09:35.842Z,83.07
2018-01-05T08:15:39.443Z,83.07
2018-01-05T08:21:42.894Z,82.46
2018-01-05T08:27:46.337Z,82.41
2018-01-05T08:33:49.770Z,82.29
2018-01-05T08:39:53.533Z,82.01
2018-01-05T08:45:57.238Z,82.19
2018-01-05T08:52:01.774Z,82.01
2018-01-05T08:58:05.238Z,81.81
2018-01-05T09:04:08.859Z,82.15
2018-01-05T09:10:12.313Z,82.24
2018-01-05T09:16:15.782Z,82.50
2018-01-05T09:22:19.346Z,82.66
2018-01-05T09:28:22.783Z,82.19
2018-01-05T09:34:27.059Z,81.55
2018-01-05T09:40:30.500Z,81.06
2018-01-05T09:46:33.984Z,80.28
2018-01-05T09:52:37.508Z,79.77
2018-01-05T09:58:41.054Z,79.63
2018-01-05T10:04:44.656Z,79.84
2018-01-05T10:10:48.706Z,80.01
2018-01-05T10:16:52.146Z,80.24
2018-01-05T10:22:56.549Z,80.73
2018-01-05T10:29:00.239Z,82.54
2018-01-05T10:35:03.813Z,84.44
2018-01-05T10:41:07.281Z,84.67
2018-01-05T10:47:10.785Z,83.58
2018-01-05T10:53:14.222Z,83.74
2018-01-05T10:59:17.850Z,83.13
2018-01-05T11:05:21.292Z,82.89
2018-01-05T11:11:24.969Z,81.52
2018-01-05T11:17:28.662Z,81.56
2018-01-05T11:23:32.847Z,79.53
2018-01-05T11:29:36.326Z,76.77
2018-01-05T11:35:40.136Z,76.46
2018-01-05T11:41:43.584Z,74.54
2018-01-05T11:47:47.358Z,74.50
2018-01-05T11:53:50.931Z,73.55
2018-01-05T11:59:55.292Z,71.94
2018-01-05T12:05:59.895Z,71.73
2018-01-05T12:12:04.264Z,70.12
2018-01-05T12:18:08.654Z,68.97
2018-01-05T12:24:12.935Z,68.36
2018-01-05T12:30:16.450Z,68.99
2018-01-05T12:36:20.105Z,67.72
2018-01-05T12:42:24.694Z,68.42
2018-01-05T12:48:29.697Z,66.87
2018-01-05T12:54:34.145Z,67.09
2018-01-05T13:00:37.594Z,66.76
2018-01-05T13:06:41.026Z,67.03
2018-01-05T13:12:44.541Z,65.36
2018-01-05T13:18:48.062Z,66.09
2018-01-05T13:24:51.636Z,67.12
2018-01-05T13:30:56.092Z,66.35
2018-01-05T13:36:59.661Z,66.37
2018-01-05T13:43:04.110Z,67.10
2018-01-05T13:49:07.653Z,66.14
2018-01-05T13:55:11.231Z,67.12
2018-01-05T14:01:14.732Z,68.06
2018-01-05T14:07:18.381Z,68.90
2018-01-05T14:13:21.908Z,68.31
2018-01-05T14:19:25.630Z,68.84
2018-01-05T14:25:29.313Z,69.53
2018-01-05T14:31:32.835Z,70.66
2018-01-05T14:37:36.340Z,71.76
2018-01-05T14:43:40.553Z,70.31
2018-01-05T14:49:44.013Z,70.25
2018-01-05T14:55:47.712Z,71.64
2018-01-05T15:01:51.210Z,73.60
2018-01-05T15:07:54.950Z,75.79
2018-01-05T15:13:58.766Z,77.33
2018-01-05T15:20:02.215Z,79.61
2018-01-05T15:26:05.708Z,80.13
2018-01-05T15:32:09.231Z,80.90
2018-01-05T15:38:12.767Z,80.30
2018-01-05T15:44:16.280Z,80.90
2018-01-05T15:50:19.742Z,81.16
2018-01-05T15:56:23.175Z,81.91
2018-01-05T16:02:27.506Z,81.87
2018-01-05T16:08:30.968Z,81.97
2018-01-05T16:14:34.562Z,81.91
2018-01-05T16:20:38.882Z,82.25
2018-01-05T16:26:42.415Z,82.41
2018-01-05T16:32:45.928Z,82.61
2018-01-05T16:38:49.458Z,82.57
2018-01-05T16:44:53.320Z,84.12
2018-01-05T16:50:56.980Z,84.35
2018-01-05T16:57:00.727Z,84.79
2018-01-05T17:03:04.230Z,85.06
2018-01-05T17:09:07.835Z,85.55
2018-01-05T17:15:11.303Z,85.56
2018-01-05T17:21:14.887Z,85.28
2018-01-05T17:27:18.419Z,85.39
2018-01-05T17:33:21.858Z,85.17
2018-01-05T17:39:26.251Z,85.58
2018-01-05T17:45:30.517Z,85.88
2018-01-05T17:51:33.952Z,85.97
2018-01-05T17:57:37.419Z,86.59
2018-01-05T18:03:40.979Z,86.79
2018-01-05T18:09:44.527Z,86.74
2018-01-05T18:15:48.027Z,86.57
2018-01-05T18:21:52.395Z,86.97
2018-01-05T18:27:56.505Z,86.97
2018-01-05T18:34:00.089Z,88.15
2018-01-05T18:40:03.710Z,88.02
2018-01-05T18:46:07.334Z,88.47
2018-01-05T18:52:11.686Z,88.95
2018-01-05T18:58:15.207Z,89.14
2018-01-05T19:04:18.733Z,89.37
2018-01-05T19:10:23.164Z,88.82
2018-01-05T19:16:27.288Z,88.56
2018-01-05T19:22:30.997Z,88.62
2018-01-05T19:28:35.285Z,87.67
2018-01-05T19:34:38.781Z,87.41
2018-01-05T19:40:42.276Z,88.98
2018-01-05T19:46:45.854Z,88.42
2018-01-05T19:52:49.454Z,88.35
2018-01-05T19:58:53.419Z,88.41
2018-01-05T20:04:57.363Z,88.37
2018-01-05T20:11:00.914Z,88.78
2018-01-05T20:17:04.412Z,88.62
2018-01-05T20:23:07.906Z,88.28
2018-01-05T20:29:12.239Z,88.96
2018-01-05T20:35:16.567Z,89.40
2018-01-05T20:41:20.360Z,89.28
2018-01-05T20:47:24.147Z,89.12
2018-01-05T20:53:28.460Z,89.13
2018-01-05T20:59:32.263Z,88.48
2018-01-05T21:05:35.936Z,89.44
2018-01-05T21:11:39.367Z,89.65
2018-01-05T21:17:42.942Z,90.01
2018-01-05T21:23:46.430Z,89.24
2018-01-05T21:29:50.709Z,89.45
2018-01-05T21:35:55.344Z,88.51
2018-01-05T21:41:58.926Z,88.96
2018-01-05T21:48:02.432Z,88.80
2018-01-05T21:54:05.897Z,88.62
2018-01-05T22:00:09.645Z,88.58
2018-01-05T22:06:13.255Z,88.80
2018-01-05T22:12:16.774Z,87.92
2018-01-05T22:18:20.253Z,88.05
2018-01-05T22:24:24.454Z,88.21
2018-01-05T22:30:29.249Z,88.02
2018-01-05T22:36:32.819Z,88.24
2018-01-05T22:42:36.407Z,87.64
2018-01-05T22:48:39.931Z,88.08
2018-01-05T22:54:43.667Z,88.09
2018-01-05T23:00:47.275Z,87.43
2018-01-05T23:06:50.886Z,86.87
2018-01-05T23:12:55.014Z,87.47
2018-01-05T23:18:58.751Z,87.25
2018-01-05T23:25:02.430Z,86.99
2018-01-05T23:31:07.549Z,87.56
2018-01-05T23:37:12.028Z,87.20
2018-01-05T23:43:15.524Z,87.17
2018-01-05T23:49:19.233Z,87.58
2018-01-05T23:55:22.708Z,88.44
